Nordstar B738 at Norilsk on May 6th 2019, overran runway on landing

Last Update: May 6, 2019 / 14:12:33 GMT/Zulu time

Bookmark this article
Incident Facts

Date of incident
May 6, 2019

Classification
Incident

Flight number
Y7-217

Destination
Norilsk, Russia

Aircraft Registration
VQ-BPM

Aircraft Type
Boeing 737-800

ICAO Type Designator
B738

Airport ICAO Code
UOOO

A Nordstar Boeing 737-800, registration VQ-BPM performing flight Y7-217 from Krasnojarsk to Norilsk (Russia) with about 100 people on board, landed on Norilsk's runway 19 (length 11,250 feet/3430 meters) at 13:16L (06:16Z) but overran the end of the runway and came to a stop on the paved surface of the runway end safety area. There were no injuries, the aircraft did not sustain damage.

The occurrence aircraft is currently enroute for flight Y7-208 back to Krasnojarsk departing Norilsk about 7:45 hours after landing.

Metars:
UOOO 060800Z 28012MPS 1900 1300NE R19/1300D -SHSN BLSN BKN007CB M05/M06 Q1006 R19/35//55 NOSIG RMK QFE738/0984=
UOOO 060730Z 29012MPS 1700 R19/1700U SHSN BLSN BKN008CB M05/M06 Q1005 R19/35//55 NOSIG RMK QFE737/0983=
UOOO 060700Z 28013MPS 1000 0750NE R19/0750D SHSN BLSN BKN008CB M05/M06 Q1004 R19/35//55 NOSIG RMK QFE737/0983=
UOOO 060630Z 28012MPS 1600 1100NE R19/1100D SHSN BLSN BKN005CB M05/M06 Q1003 R19/35//55 NOSIG RMK QFE736/0982=
UOOO 060600Z 28012MPS 1300 1100NE R19/1100N SHSN BLSN BKN012CB M06/M07 Q1002 R19/422050 NOSIG RMK QFE736/0981=
UOOO 060530Z 27011MPS 0900 0800SE R19/0900U SHSN BLSN BKN///CB M06/M06 Q1002 R19/422050 NOSIG RMK QFE735/0980=
UOOO 060500Z 26011MPS 0800 0650SE R19/0800N SHSN BLSN BKN///CB M06/M07 Q1001 R19/422050 NOSIG RMK QFE734/0979=
UOOO 060430Z 26011MPS 1100 R19/1100N SHSN BLSN BKN///CB M06/M07 Q1000 R19/422050 TEMPO 0300 BLSN VV002 RMK QFE734/0979=
UOOO 060400Z 26011MPS 0900 0800NE R19/0800U SHSN BLSN BKN008CB M06/M07 Q0999 R19/422050 TEMPO 0300 BLSN VV002 RMK QFE733/0978=
UOOO 060330Z 26011MPS 0600 0550S R19/0650D SHSN BLSN BKN006CB M06/M07 Q0999 R19/422050 TEMPO 0300 BLSN VV002 RMK QFE733/0977=
UOOO 060300Z 25012MPS 0400 R19/0400U SHSN BLSN BKN006CB M06/M07 Q0998 R19/422050 TEMPO 0300 BLSN VV002 RMK QFE732/0976=
Incident Facts

Date of incident
May 6, 2019

Classification
Incident

Flight number
Y7-217

Destination
Norilsk, Russia

Aircraft Registration
VQ-BPM

Aircraft Type
Boeing 737-800

ICAO Type Designator
B738

Airport ICAO Code
UOOO

This article is published under license from Avherald.com. © of text by Avherald.com.
Article source

You can read 2 more free articles without a subscription.

Subscribe now and continue reading without any limits!

Are you a subscriber? Login
Subscribe

Read unlimited articles and receive our daily update briefing. Gain better insights into what is happening in commercial aviation safety.

Free newsletter

Want to know more and stay ahead? Get our free weekly newsletter and join 5466 existing subscribers.

By subscribing, you accept our terms and conditions and confirm that you've read our privacy policy.

Send tip

Support AeroInside by sending a small tip amount.

Related articles

Newest articles

Subscribe today

Are you researching aviation incidents? Get access to AeroInside Insights, unlimited read access and receive the daily newsletter.

Pick your plan and subscribe

Partner

Blockaviation logo

A new way to document and demonstrate airworthiness compliance and aircraft value. Find out more.

Virtual Speech logo

ELITE Simulation Solutions is a leading global provider of Flight Simulation Training Devices, IFR training software as well as flight controls and related services. Find out more.

Get updates

Never miss an article from AeroInside. Subscribe to our free weekly newsletter and join 5466 existing subscribers.

By subscribing, you accept our terms and conditions and that you've read our privacy policy.

AeroInside Blog
Popular aircraft
Airbus A320
Boeing 737-800
Boeing 737-800 MAX
Popular airlines
American Airlines
United
Delta
Air Canada
Lufthansa
British Airways